Pagrindinis puslapis
METAR-TAF:

METAR-TAF

Oro uostai :

Akaba, Jordanija

platuma: 29-38N, ilguma: 035-01E, Aukštis: 53 m

Dabartinis oras

Ataskaita buvo paskelbta 3 valandos ir 39 minutes, ne 19:00 UTC
Vėjas 16 kt iš Šiaurės
Temperatūra 27°C
Drėgmė 24%
Slėgis 1014 hPa
Matomumas: 7000 m
Mažai debesys ne aukštis 3000 ft
Išsisklaidę debesys ne aukštis 20000 ft

METAR: OJAQ 211900Z 36016KT 7000 FEW030 SCT200 27/05 Q1014 NOSIG

Laikas: 01:39 (22:39 UTC)

Prognozė

Ataskaita buvo paskelbta 5 valandos ir 39 minutes, ne 17:00 UTC
Prognozė galioja nuo 21 metu 18 UTC su 22 metu 24 UTC
Vėjas 12 kt iš Šiaurės
Matomumas: 6000 m
Laikinai
nuo 22 metu 09 UTC su 22 metu 15 UTC
Vėjas 20 kt iš Šiaurės
Matomumas: 4000 m
Dulkes pustymas

TAF: OJAQ 211700Z 2118/2224 35012KT 6000 NSC TEMPO 2209/2215 36020KT 4000 BLDU

Orai ataskaitas ir orų prognozės (METAR, TAF).

turimą stotys yra geltonos ir raudonos taškus žemėlapyje.

Perkelti pele per norėdami pamatyti stoties vardą.

Tada spustelėkite, norėdami matyti oro stebėjimo ir prognozės.

Norėdami pakeisti žemėlapį: spustelėkite ant žalios mygtukų su juodo kryžiaus žemyn,; žalią mygtuką su brūkšneliu, jei norite nutolinti; arba žalių rodyklių gretimoms žemėlapius.


METAR-TAF: